Impacts METAR Board
IDs:

KTCL - Tuscaloosa Rgnl, AL, US

Updated at: 0900 UTC 17 Aug 2018
Potential Impact None Slight Moderate High
Time 16/21Z 16/22Z 16/23Z 17/00Z 17/01Z 17/02Z 17/03Z 17/04Z 17/05Z 17/06Z 17/07Z 17/08Z 17/09Z
Temp95 94 93 87 82 80 79 78 78 77 77 77 76
Dewpt72 72 72 69 70 71 71 72 73 73 73 73 73
Altim30.06 30.05 30.05 30.07 30.10 30.11 30.14 30.12 30.12 30.11 30.10 30.10 30.13
VIS10 10 10 10 10 10 10 10 10 10 10 10 10
CIG-- -- -- -- -- -- -- -- -- -- -- 7 --
CoverCLRCLRCLRFEWCLRCLRCLRCLRCLRCLRFEWOVCSCT
FltCatVFRVFRVFRVFRVFRVFRVFRVFRVFRVFRVFRIFRVFR
WX--------------------------
WDir0210190170140150200140130180180190180
WSpd5 5 7 14 5 5 4 3 5 8 4 5 5
WGst-- -- -- 20 -- -- -- -- -- -- -- -- --
Raw hourly METARs
KTCL 162053Z VRB05KT 10SM CLR 35/22 A3006 RMK AO2 SLP175 T03500222 56018
KTCL 162153Z 21005KT 10SM CLR 34/22 A3005 RMK AO2 SLP172 T03440222
KTCL 162253Z 19007KT 10SM CLR 34/22 A3005 RMK AO2 LTG DSNT SE AND S SLP173 T03390222
KTCL 162353Z 17014G20KT 10SM FEW050 31/21 A3007 RMK AO2 LTG DSNT E AND SE SLP180 T03060206 10350 20306 53005
KTCL 170053Z 14005KT 10SM CLR 28/21 A3010 RMK AO2 SLP189 T02780211
KTCL 170153Z 15005KT 10SM CLR 27/22 A3011 RMK AO2 SLP192 T02670217
KTCL 170253Z 20004KT 10SM CLR 26/22 A3014 RMK AO2 SLP205 T02610217 53025
KTCL 170353Z 14003KT 10SM CLR 26/22 A3012 RMK AO2 SLP198 T02560222
KTCL 170453Z 13005KT 10SM CLR 26/23 A3012 RMK AO2 SLP196 T02560228
KTCL 170553Z 18008KT 10SM CLR 25/23 A3011 RMK AO2 SLP194 T02500228 10300 20250 403500244 56011
KTCL 170653Z AUTO 18004KT 10SM FEW009 25/23 A3010 RMK AO2 SLP191 T02500228
KTCL 170753Z AUTO 19005KT 10SM OVC007 25/23 A3010 RMK AO2 SLP191 T02500228
KTCL 170901Z AUTO 18005KT 10SM SCT008 24/23 A3013 RMK AO2 T02440228



Page loaded:  09:31 UTC  |   02:31 AM Pacific  |   03:31 AM Mountain  |   04:31 AM Central  |   05:31 AM Eastern

 

ADVISORIES

FORECASTS

FORECASTS

OBSERVATIONS

USER TOOLS

ABOUT US